METAR AND TAF INFORMATION
METAR FOR YARG
ADDS - METARS form results

(0627 UTC 20 April 2018)
Data provider http://aviationweather.gov/adds/metars/
 
METAR text: YARG 200600Z AUTO 03009KT 010V090 9999 // BKN120 36/17 Q1010
Conditions at: YARG (ARGYLE AERO , AU) observed 0600 UTC 20 April 2018
Temperature: 36.0°C (97°F)
Dewpoint: 17.0°C (63°F) [RH = 33%]
Pressure (altimeter): 29.82 inches Hg (1010.0 mb)
Winds: from the NNE (30 degrees) at 10 MPH (9 knots; 4.7 m/s)
Visibility: 6 or more miles (10+ km)
Ceiling: 12000 feet AGL
Clouds: broken clouds at 12000 feet AGL
Weather: no significant weather observed at this time

 AIRPORT MAP

 RUNWAY INFORMATION
Runway 01 Runway length 7546 ft Runway width 98 ft
Runway elevation 522 ft Runway displaced threshold 0 ft Runway heading 21
Runway 19 Runway length 7546 ft Runway width 98 ft
Runway elevation 505 ft Runway displaced threshold 0 ft Runway heading 201

 AIRPORT FREQUENCIES
Type CTAF Name CTAF Frequency 127.3 MHZ
Type FSS Name BRISBANE C Frequency 122.4 MHZ

 AIRPORT NEAR NAVIGATION AIDS
Type VOR-DME Name Argyle Frequency 113900 KHZ